createdAt,value
2017-09-04T00:02:03.046Z,55.80
2017-09-04T00:04:30.562Z,55.80
2017-09-04T00:06:58.094Z,55.80
2017-09-04T00:09:25.732Z,55.80
2017-09-04T00:11:53.391Z,55.80
2017-09-04T00:14:20.922Z,55.80
2017-09-04T00:16:48.406Z,55.70
2017-09-04T00:19:16.162Z,55.80
2017-09-04T00:21:43.847Z,55.70
2017-09-04T00:24:11.486Z,55.80
2017-09-04T00:26:39.149Z,55.70
2017-09-04T00:29:06.799Z,55.70
2017-09-04T00:31:34.314Z,55.70
2017-09-04T00:34:01.931Z,55.70
2017-09-04T00:36:29.455Z,55.70
2017-09-04T00:38:57.023Z,55.70
2017-09-04T00:41:24.678Z,55.70
2017-09-04T00:43:52.179Z,55.70
2017-09-04T00:46:19.714Z,55.70
2017-09-04T00:48:47.250Z,55.60
2017-09-04T00:51:14.913Z,55.70
2017-09-04T00:53:42.591Z,55.60
2017-09-04T00:56:10.243Z,55.70
2017-09-04T00:58:37.900Z,55.70
2017-09-04T01:01:05.425Z,55.60
2017-09-04T01:03:32.994Z,55.60
2017-09-04T01:06:00.617Z,55.60
2017-09-04T01:08:28.146Z,55.70
2017-09-04T01:10:55.771Z,55.70
2017-09-04T01:13:23.431Z,55.60
2017-09-04T01:15:51.092Z,55.60
2017-09-04T01:18:18.760Z,55.60
2017-09-04T01:20:46.250Z,55.60
2017-09-04T01:23:13.855Z,55.70
2017-09-04T01:25:41.516Z,55.60
2017-09-04T01:28:09.032Z,55.60
2017-09-04T01:30:36.527Z,55.60
2017-09-04T01:33:04.127Z,55.60
2017-09-04T01:35:31.639Z,55.60
2017-09-04T01:37:59.211Z,55.50
2017-09-04T01:40:26.861Z,55.60
2017-09-04T01:42:54.512Z,55.60
2017-09-04T01:45:22.027Z,55.60
2017-09-04T01:47:49.532Z,55.50
2017-09-04T01:50:17.143Z,55.60
2017-09-04T01:52:44.762Z,55.50
2017-09-04T01:55:12.287Z,55.60
2017-09-04T01:57:39.882Z,55.50
2017-09-04T02:00:07.515Z,55.60
2017-09-04T02:02:35.172Z,55.50
2017-09-04T02:05:02.870Z,55.40
2017-09-04T02:07:30.365Z,55.50
2017-09-04T02:09:58.635Z,55.60
2017-09-04T02:12:27.043Z,55.60
2017-09-04T02:14:54.551Z,55.60
2017-09-04T02:17:22.191Z,55.50
2017-09-04T02:19:49.682Z,55.50
2017-09-04T02:22:17.287Z,55.50
2017-09-04T02:24:44.786Z,55.40
2017-09-04T02:27:12.574Z,55.40
2017-09-04T02:29:40.659Z,55.60
2017-09-04T02:32:08.317Z,55.60
2017-09-04T02:34:35.963Z,55.60
2017-09-04T02:37:04.044Z,55.50
2017-09-04T02:39:31.654Z,55.50
2017-09-04T02:41:59.346Z,55.50
2017-09-04T02:44:27.008Z,55.50
2017-09-04T02:46:54.703Z,55.50
2017-09-04T02:49:22.182Z,55.60
2017-09-04T02:51:49.983Z,55.50
2017-09-04T02:54:17.646Z,55.40
2017-09-04T02:56:45.312Z,55.40
2017-09-04T02:59:12.972Z,55.40
2017-09-04T03:01:40.618Z,55.40
2017-09-04T03:04:08.136Z,55.40
2017-09-04T03:06:35.636Z,55.40
2017-09-04T03:09:03.178Z,55.40
2017-09-04T03:11:30.674Z,55.40
2017-09-04T03:13:58.296Z,55.30
2017-09-04T03:16:25.955Z,56.00
2017-09-04T03:18:53.470Z,55.30
2017-09-04T03:21:20.979Z,55.30
2017-09-04T03:23:48.531Z,55.30
2017-09-04T03:26:16.024Z,55.20
2017-09-04T03:28:43.634Z,55.30
2017-09-04T03:31:11.152Z,55.30
2017-09-04T03:33:38.651Z,55.30
2017-09-04T03:36:06.407Z,55.20
2017-09-04T03:38:34.074Z,55.20
2017-09-04T03:41:01.588Z,55.30
2017-09-04T03:43:29.078Z,55.20
2017-09-04T03:45:56.586Z,55.70
2017-09-04T03:48:24.107Z,55.30
2017-09-04T03:50:51.632Z,55.30
2017-09-04T03:53:19.123Z,55.30
2017-09-04T03:55:46.626Z,55.30
2017-09-04T03:58:14.131Z,55.20
2017-09-04T04:00:41.767Z,55.30
2017-09-04T04:03:09.283Z,55.30
2017-09-04T04:05:36.811Z,55.30
2017-09-04T04:08:04.335Z,55.80
2017-09-04T04:10:31.834Z,55.20
2017-09-04T04:12:59.456Z,55.30
2017-09-04T04:15:27.102Z,55.30
2017-09-04T04:17:54.618Z,55.30
2017-09-04T04:20:22.115Z,55.30
2017-09-04T04:22:49.666Z,55.30
2017-09-04T04:25:17.162Z,55.30
2017-09-04T04:27:44.780Z,55.30
2017-09-04T04:30:12.479Z,55.20
2017-09-04T04:32:39.967Z,55.30
2017-09-04T04:35:07.478Z,55.20
2017-09-04T04:37:35.224Z,55.40
2017-09-04T04:40:02.867Z,55.20
2017-09-04T04:42:30.363Z,55.20
2017-09-04T04:44:57.875Z,55.30
2017-09-04T04:47:25.440Z,55.20
2017-09-04T04:49:52.961Z,55.20
2017-09-04T04:52:20.551Z,55.10
2017-09-04T04:54:48.207Z,55.80
2017-09-04T04:57:15.870Z,55.40
2017-09-04T04:59:43.363Z,54.70
2017-09-04T05:02:11.005Z,55.70
2017-09-04T05:04:38.635Z,56.70
2017-09-04T05:07:06.290Z,57.00
2017-09-04T05:09:34.562Z,57.70
2017-09-04T05:12:02.227Z,57.70
2017-09-04T05:14:29.887Z,57.40
2017-09-04T05:16:57.426Z,57.60
2017-09-04T05:19:25.204Z,57.60
2017-09-04T05:21:52.866Z,57.70
2017-09-04T05:24:20.371Z,57.90
2017-09-04T05:26:47.891Z,57.70
2017-09-04T05:29:15.391Z,57.50
2017-09-04T05:31:43.116Z,55.30
2017-09-04T05:34:10.638Z,54.00
2017-09-04T05:36:38.224Z,57.10
2017-09-04T05:39:05.753Z,50.20
2017-09-04T05:41:33.315Z,45.50
2017-09-04T05:44:00.843Z,54.50
2017-09-04T05:46:29.114Z,53.20
2017-09-04T05:48:56.911Z,53.10
2017-09-04T05:51:24.572Z,54.50
2017-09-04T05:53:52.235Z,57.10
2017-09-04T05:56:19.735Z,55.90
2017-09-04T05:58:47.285Z,56.70
2017-09-04T06:01:14.786Z,56.60
2017-09-04T06:03:42.446Z,57.50
2017-09-04T06:06:09.939Z,57.30
2017-09-04T06:08:37.558Z,57.20
2017-09-04T06:11:05.084Z,57.10
2017-09-04T06:13:32.675Z,57.00
2017-09-04T06:16:00.208Z,57.30
2017-09-04T06:18:27.727Z,57.30
2017-09-04T06:20:55.440Z,57.60
2017-09-04T06:23:22.942Z,57.50
2017-09-04T06:25:50.463Z,57.70
2017-09-04T06:28:17.963Z,57.70
2017-09-04T06:30:46.383Z,57.40
2017-09-04T06:33:13.870Z,57.60
2017-09-04T06:35:41.399Z,57.60
2017-09-04T06:38:09.065Z,57.50
2017-09-04T06:40:36.723Z,57.50
2017-09-04T06:43:04.229Z,57.50
2017-09-04T06:45:31.727Z,57.40
2017-09-04T06:47:59.239Z,57.40
2017-09-04T06:50:26.742Z,57.40
2017-09-04T06:52:54.520Z,57.20
2017-09-04T06:55:22.064Z,57.20
2017-09-04T06:57:49.715Z,57.10
2017-09-04T07:00:17.214Z,57.00
2017-09-04T07:02:44.826Z,57.10
2017-09-04T07:05:12.488Z,57.20
2017-09-04T07:07:40.015Z,57.20
2017-09-04T07:10:08.427Z,57.10
2017-09-04T07:12:36.071Z,57.00
2017-09-04T07:15:03.751Z,57.10
2017-09-04T07:17:31.388Z,57.20
2017-09-04T07:19:58.920Z,57.20
2017-09-04T07:22:26.413Z,57.20
2017-09-04T07:24:53.943Z,57.30
2017-09-04T07:27:21.619Z,57.20
2017-09-04T07:29:49.130Z,57.10
2017-09-04T07:32:16.648Z,57.10
2017-09-04T07:34:45.648Z,57.20
2017-09-04T07:37:13.143Z,57.20
2017-09-04T07:39:40.767Z,57.20
2017-09-04T07:42:08.262Z,57.30
2017-09-04T07:44:35.851Z,57.30
2017-09-04T07:47:03.496Z,57.40
2017-09-04T07:49:31.160Z,57.30
2017-09-04T07:51:58.660Z,57.40
2017-09-04T07:54:26.158Z,57.40
2017-09-04T07:56:53.782Z,57.50
2017-09-04T07:59:21.299Z,57.50
2017-09-04T08:01:48.819Z,57.50
2017-09-04T08:04:16.319Z,57.50
2017-09-04T08:06:43.946Z,57.40
2017-09-04T08:09:11.601Z,57.50
2017-09-04T08:11:39.310Z,57.50
2017-09-04T08:14:06.810Z,57.70
2017-09-04T08:16:34.362Z,57.60
2017-09-04T08:19:01.875Z,57.60
2017-09-04T08:21:29.552Z,57.60
2017-09-04T08:23:57.350Z,57.60
2017-09-04T08:26:24.847Z,57.70
2017-09-04T08:28:52.351Z,57.70
2017-09-04T08:31:20.131Z,57.70
2017-09-04T08:33:47.654Z,57.70
2017-09-04T08:36:15.242Z,57.70
2017-09-04T08:38:43.729Z,57.80
2017-09-04T08:41:11.230Z,58.30
2017-09-04T08:43:38.772Z,57.70
2017-09-04T08:46:06.296Z,57.80
2017-09-04T08:48:33.786Z,57.70
2017-09-04T08:51:01.280Z,57.80
2017-09-04T08:53:28.783Z,57.80
2017-09-04T08:55:56.330Z,57.80
2017-09-04T08:58:23.967Z,57.60
2017-09-04T09:00:51.620Z,57.80
2017-09-04T09:03:19.118Z,57.80
2017-09-04T09:05:46.738Z,57.80
2017-09-04T09:08:14.240Z,57.80
2017-09-04T09:10:41.767Z,57.80
2017-09-04T09:13:09.327Z,57.80
2017-09-04T09:15:36.883Z,57.80
2017-09-04T09:18:04.473Z,57.80
2017-09-04T09:20:31.971Z,57.80
2017-09-04T09:22:59.499Z,57.80
2017-09-04T09:25:27.015Z,57.80
2017-09-04T09:27:54.535Z,57.70
2017-09-04T09:30:22.116Z,57.80
2017-09-04T09:32:49.631Z,57.70
2017-09-04T09:35:17.261Z,57.70
2017-09-04T09:37:44.782Z,57.60
2017-09-04T09:40:12.315Z,57.60
2017-09-04T09:42:40.178Z,57.50
2017-09-04T09:45:07.930Z,57.70
2017-09-04T09:47:35.702Z,57.70
2017-09-04T09:50:03.196Z,57.60
2017-09-04T09:52:30.694Z,57.50
2017-09-04T09:54:58.310Z,57.50
2017-09-04T09:57:25.807Z,57.50
2017-09-04T09:59:53.422Z,57.40
2017-09-04T10:02:20.919Z,57.50
2017-09-04T10:04:48.443Z,57.40
2017-09-04T10:07:15.978Z,57.50
2017-09-04T10:09:43.478Z,57.30
2017-09-04T10:12:11.075Z,57.30
2017-09-04T10:14:38.583Z,57.50
2017-09-04T10:17:06.079Z,57.40
2017-09-04T10:19:33.641Z,57.20
2017-09-04T10:22:01.131Z,57.30
2017-09-04T10:24:28.623Z,57.40
2017-09-04T10:26:56.150Z,57.30
2017-09-04T10:29:23.654Z,57.10
2017-09-04T10:31:51.167Z,57.10
2017-09-04T10:34:18.668Z,57.10
2017-09-04T10:36:46.263Z,57.10
2017-09-04T10:39:13.766Z,57.00
2017-09-04T10:41:41.346Z,57.10
2017-09-04T10:44:08.835Z,57.00
2017-09-04T10:46:36.327Z,57.00
2017-09-04T10:49:04.599Z,56.90
2017-09-04T10:51:32.166Z,56.80
2017-09-04T10:53:59.672Z,56.80
2017-09-04T10:56:27.162Z,56.90
2017-09-04T10:58:54.792Z,56.80
2017-09-04T11:01:22.395Z,56.80
2017-09-04T11:03:49.930Z,56.70
2017-09-04T11:06:17.519Z,56.80
2017-09-04T11:08:45.046Z,56.80
2017-09-04T11:11:12.644Z,56.70
2017-09-04T11:13:40.159Z,56.60
2017-09-04T11:16:07.755Z,56.80
2017-09-04T11:18:35.474Z,56.80
2017-09-04T11:21:03.072Z,56.70
2017-09-04T11:23:30.594Z,56.70
2017-09-04T11:25:58.091Z,56.70
2017-09-04T11:28:25.629Z,56.70
2017-09-04T11:30:53.135Z,56.60
2017-09-04T11:33:20.741Z,56.50
2017-09-04T11:35:48.230Z,57.30
2017-09-04T11:38:15.719Z,56.70
2017-09-04T11:40:43.324Z,56.70
2017-09-04T11:43:10.838Z,56.60
2017-09-04T11:45:38.411Z,56.50
2017-09-04T11:48:05.902Z,56.60
2017-09-04T11:50:33.415Z,56.50
2017-09-04T11:53:01.001Z,56.50
2017-09-04T11:55:28.527Z,56.60
2017-09-04T11:57:56.107Z,56.60
2017-09-04T12:00:23.623Z,57.00
2017-09-04T12:02:51.125Z,56.60
2017-09-04T12:05:18.670Z,56.50
2017-09-04T12:07:46.163Z,56.60
2017-09-04T12:10:13.655Z,56.60
2017-09-04T12:12:41.235Z,56.60
2017-09-04T12:15:08.732Z,56.40
2017-09-04T12:17:36.254Z,56.40
2017-09-04T12:20:03.814Z,56.70
2017-09-04T12:22:31.323Z,56.50
2017-09-04T12:24:58.841Z,56.60
2017-09-04T12:27:26.567Z,56.50
2017-09-04T12:29:54.059Z,56.50
2017-09-04T12:32:21.662Z,56.50
2017-09-04T12:34:49.179Z,56.40
2017-09-04T12:37:16.787Z,56.50
2017-09-04T12:39:44.291Z,56.40
2017-09-04T12:42:11.891Z,56.50
2017-09-04T12:44:39.386Z,56.70
2017-09-04T12:47:06.879Z,56.40
2017-09-04T12:49:35.143Z,56.60
2017-09-04T12:52:02.644Z,56.50
2017-09-04T12:54:30.235Z,56.60
2017-09-04T12:56:57.726Z,56.50
2017-09-04T12:59:25.300Z,56.60
2017-09-04T13:01:52.810Z,56.60
2017-09-04T13:04:20.339Z,56.60
2017-09-04T13:06:47.914Z,56.40
2017-09-04T13:09:15.523Z,56.50
2017-09-04T13:12:02.878Z,56.50
2017-09-04T13:14:35.966Z,56.60
2017-09-04T13:17:18.387Z,56.60
2017-09-04T13:19:51.467Z,56.50
2017-09-04T13:22:25.211Z,56.60
2017-09-04T13:24:58.303Z,56.50
2017-09-04T13:27:40.690Z,56.40
2017-09-04T13:30:24.711Z,56.50
2017-09-04T13:32:57.804Z,56.50
2017-09-04T13:35:31.044Z,56.60
2017-09-04T13:38:13.418Z,56.60
2017-09-04T13:40:46.643Z,56.60
2017-09-04T13:43:29.831Z,56.70
2017-09-04T13:46:02.986Z,56.70
2017-09-04T13:48:36.142Z,56.60
2017-09-04T13:51:09.447Z,56.50
2017-09-04T13:53:51.819Z,56.60
2017-09-04T13:56:25.086Z,56.40
2017-09-04T13:58:58.403Z,56.50
2017-09-04T14:01:26.396Z,56.50
2017-09-04T14:03:55.558Z,56.40
2017-09-04T14:06:28.819Z,56.40
2017-09-04T14:09:11.222Z,56.50
2017-09-04T14:11:55.347Z,56.50
2017-09-04T14:14:41.539Z,56.50
2017-09-04T14:17:14.779Z,56.40
2017-09-04T14:19:42.530Z,56.50
2017-09-04T14:22:10.055Z,56.30
2017-09-04T14:24:37.549Z,56.50
2017-09-04T14:27:05.048Z,56.40
2017-09-04T14:29:32.568Z,56.40
2017-09-04T14:32:00.062Z,56.50
2017-09-04T14:34:27.583Z,56.30
2017-09-04T14:36:55.340Z,56.30
2017-09-04T14:39:22.901Z,56.40
2017-09-04T14:41:50.472Z,56.30
2017-09-04T14:44:36.683Z,56.40
2017-09-04T14:47:14.723Z,56.30
2017-09-04T14:49:42.327Z,56.20
2017-09-04T14:52:09.826Z,56.50
2017-09-04T14:54:37.446Z,56.40
2017-09-04T14:57:04.940Z,56.40
2017-09-04T14:59:32.666Z,56.30
2017-09-04T15:02:01.445Z,56.40
2017-09-04T15:04:29.067Z,56.40
2017-09-04T15:06:56.559Z,56.40
2017-09-04T15:09:25.690Z,56.30
2017-09-04T15:11:53.295Z,56.30
2017-09-04T15:14:20.791Z,56.40
2017-09-04T15:16:48.464Z,56.30
2017-09-04T15:19:16.544Z,56.20
2017-09-04T15:21:44.123Z,56.30
2017-09-04T15:24:11.622Z,56.10
2017-09-04T15:26:39.142Z,56.20
2017-09-04T15:29:06.658Z,56.30
2017-09-04T15:31:34.170Z,56.20
2017-09-04T15:34:01.659Z,56.30
2017-09-04T15:36:29.954Z,56.30
2017-09-04T15:38:57.535Z,56.30
2017-09-04T15:41:25.051Z,56.30
2017-09-04T15:43:52.651Z,56.30
2017-09-04T15:46:20.304Z,56.30
2017-09-04T15:48:47.826Z,56.20
2017-09-04T15:51:15.359Z,56.20
2017-09-04T15:53:42.909Z,56.20
2017-09-04T15:56:10.407Z,56.20
2017-09-04T15:58:37.998Z,56.20
2017-09-04T16:01:05.486Z,56.20
2017-09-04T16:03:33.007Z,56.20
2017-09-04T16:06:16.474Z,56.20
2017-09-04T16:08:44.003Z,56.20
2017-09-04T16:11:15.121Z,56.20
2017-09-04T16:13:45.575Z,56.20
2017-09-04T16:16:15.691Z,56.10
2017-09-04T16:18:45.167Z,56.20
2017-09-04T16:21:18.440Z,56.10
2017-09-04T16:23:47.767Z,56.10
2017-09-04T16:26:33.940Z,56.10
2017-09-04T16:29:07.025Z,56.10
2017-09-04T16:31:35.172Z,56.20
2017-09-04T16:34:07.518Z,56.10
2017-09-04T16:36:35.019Z,56.10
2017-09-04T16:39:04.291Z,56.10
2017-09-04T16:41:41.707Z,56.10
2017-09-04T16:44:11.015Z,56.00
2017-09-04T16:46:56.179Z,56.20
2017-09-04T16:49:33.634Z,56.20
2017-09-04T16:52:01.615Z,56.20
2017-09-04T16:54:39.070Z,56.20
2017-09-04T16:57:11.027Z,56.20
2017-09-04T16:59:38.526Z,56.00
2017-09-04T17:02:06.023Z,56.10
2017-09-04T17:04:33.536Z,56.00
2017-09-04T17:07:01.106Z,56.00
2017-09-04T17:09:31.090Z,56.00
2017-09-04T17:11:59.206Z,56.00
2017-09-04T17:14:26.707Z,56.10
2017-09-04T17:16:56.663Z,56.00
2017-09-04T17:19:42.902Z,56.00
2017-09-04T17:22:11.219Z,56.00
2017-09-04T17:24:38.736Z,56.00
2017-09-04T17:27:06.991Z,56.00
2017-09-04T17:29:34.495Z,56.00
2017-09-04T17:32:02.094Z,56.00
2017-09-04T17:34:29.615Z,56.00
2017-09-04T17:36:57.191Z,56.00
2017-09-04T17:39:24.683Z,56.00
2017-09-04T17:41:53.126Z,56.00
2017-09-04T17:44:20.674Z,55.90
2017-09-04T17:46:48.168Z,55.80
2017-09-04T17:49:15.664Z,55.90
2017-09-04T17:51:43.159Z,56.30
2017-09-04T17:54:10.676Z,56.30
2017-09-04T17:56:38.170Z,56.10
2017-09-04T17:59:05.679Z,56.10
2017-09-04T18:01:33.178Z,56.00
2017-09-04T18:04:00.689Z,56.10
2017-09-04T18:06:28.251Z,56.00
2017-09-04T18:08:55.871Z,55.70
2017-09-04T18:11:23.369Z,56.00
2017-09-04T18:13:51.007Z,55.90
2017-09-04T18:16:18.674Z,55.90
2017-09-04T18:18:46.174Z,55.90
2017-09-04T18:21:13.674Z,56.00
2017-09-04T18:23:41.251Z,55.80
2017-09-04T18:26:08.743Z,55.90
2017-09-04T18:28:36.243Z,55.90
2017-09-04T18:31:03.758Z,55.90
2017-09-04T18:33:31.264Z,55.70
2017-09-04T18:35:58.786Z,55.90
2017-09-04T18:38:26.378Z,56.00
2017-09-04T18:40:53.898Z,56.00
2017-09-04T18:43:21.398Z,55.90
2017-09-04T18:45:48.895Z,56.00
2017-09-04T18:48:16.411Z,56.50
2017-09-04T18:50:43.899Z,55.90
2017-09-04T18:53:11.396Z,55.90
2017-09-04T18:55:38.895Z,55.90
2017-09-04T18:58:06.421Z,55.80
2017-09-04T19:00:33.927Z,55.90
2017-09-04T19:03:01.456Z,56.00
2017-09-04T19:05:29.048Z,56.00
2017-09-04T19:07:57.331Z,55.80
2017-09-04T19:10:24.826Z,55.80
2017-09-04T19:12:52.321Z,55.80
2017-09-04T19:15:19.837Z,55.80
2017-09-04T19:17:47.327Z,55.90
2017-09-04T19:20:14.820Z,56.10
2017-09-04T19:22:42.414Z,55.80
2017-09-04T19:25:09.907Z,55.60
2017-09-04T19:27:37.507Z,55.70
2017-09-04T19:30:05.023Z,56.00
2017-09-04T19:32:32.519Z,56.10
2017-09-04T19:35:00.107Z,56.10
2017-09-04T19:37:27.602Z,56.00
2017-09-04T19:39:55.096Z,56.00
2017-09-04T19:42:22.833Z,56.00
2017-09-04T19:44:50.352Z,56.00
2017-09-04T19:47:17.843Z,55.80
2017-09-04T19:49:45.423Z,55.90
2017-09-04T19:52:12.934Z,55.90
2017-09-04T19:54:40.494Z,56.10
2017-09-04T19:57:07.986Z,56.00
2017-09-04T19:59:35.498Z,56.10
2017-09-04T20:02:03.027Z,56.10
2017-09-04T20:04:30.551Z,55.80
2017-09-04T20:06:58.063Z,55.90
2017-09-04T20:09:25.567Z,55.80
2017-09-04T20:11:53.110Z,55.70
2017-09-04T20:14:20.615Z,55.80
2017-09-04T20:16:48.221Z,55.70
2017-09-04T20:19:15.711Z,55.80
2017-09-04T20:21:43.234Z,56.20
2017-09-04T20:24:10.723Z,55.70
2017-09-04T20:26:38.226Z,55.90
2017-09-04T20:29:05.715Z,55.90
2017-09-04T20:31:33.222Z,55.90
2017-09-04T20:34:01.511Z,55.80
2017-09-04T20:36:29.083Z,55.80
2017-09-04T20:38:56.599Z,55.80
2017-09-04T20:41:24.102Z,55.80
2017-09-04T20:43:51.673Z,55.80
2017-09-04T20:46:19.172Z,55.80
2017-09-04T20:48:46.833Z,55.80
2017-09-04T20:51:14.403Z,55.80
2017-09-04T20:53:41.907Z,55.90
2017-09-04T20:56:09.402Z,55.90
2017-09-04T20:58:37.107Z,55.70
2017-09-04T21:01:04.630Z,55.80
2017-09-04T21:03:32.119Z,55.70
2017-09-04T21:05:59.649Z,55.80
2017-09-04T21:08:27.211Z,55.70
2017-09-04T21:10:54.698Z,55.90
2017-09-04T21:13:22.195Z,55.70
2017-09-04T21:15:49.688Z,55.70
2017-09-04T21:18:17.240Z,55.70
2017-09-04T21:20:44.735Z,55.80
2017-09-04T21:23:12.228Z,55.80
2017-09-04T21:25:39.800Z,55.80
2017-09-04T21:28:07.319Z,55.80
2017-09-04T21:30:35.583Z,55.70
2017-09-04T21:33:03.123Z,55.60
2017-09-04T21:35:30.651Z,55.70
2017-09-04T21:37:58.138Z,55.70
2017-09-04T21:40:25.632Z,55.70
2017-09-04T21:42:53.134Z,55.60
2017-09-04T21:45:20.667Z,55.60
2017-09-04T21:47:48.162Z,55.70
2017-09-04T21:50:15.771Z,55.80
2017-09-04T21:52:43.382Z,55.70
2017-09-04T21:55:11.075Z,55.70
2017-09-04T21:57:38.568Z,55.80
2017-09-04T22:00:06.101Z,55.90
2017-09-04T22:02:33.694Z,55.80
2017-09-04T22:05:01.219Z,55.80
2017-09-04T22:07:28.722Z,55.80
2017-09-04T22:09:56.211Z,56.00
2017-09-04T22:12:23.720Z,55.70
2017-09-04T22:14:51.224Z,55.60
2017-09-04T22:17:18.788Z,55.70
2017-09-04T22:19:46.298Z,55.80
2017-09-04T22:22:13.794Z,55.90
2017-09-04T22:24:41.286Z,55.70
2017-09-04T22:27:08.839Z,54.90
2017-09-04T22:29:36.333Z,55.70
2017-09-04T22:32:03.959Z,55.70
2017-09-04T22:34:31.460Z,55.70
2017-09-04T22:36:58.952Z,55.70
2017-09-04T22:39:26.450Z,55.60
2017-09-04T22:41:53.943Z,55.50
2017-09-04T22:44:21.562Z,54.40
2017-09-04T22:46:49.055Z,55.60
2017-09-04T22:49:16.550Z,55.70
2017-09-04T22:51:44.046Z,55.80
2017-09-04T22:54:11.695Z,55.80
2017-09-04T22:56:39.292Z,55.80
2017-09-04T22:59:06.803Z,55.80
2017-09-04T23:01:34.291Z,55.70
2017-09-04T23:04:01.878Z,55.70
2017-09-04T23:06:29.382Z,55.70
2017-09-04T23:08:56.876Z,55.70
2017-09-04T23:11:24.414Z,55.60
2017-09-04T23:13:51.903Z,55.60
2017-09-04T23:16:19.395Z,55.60
2017-09-04T23:18:46.987Z,55.60
2017-09-04T23:21:14.478Z,55.50
2017-09-04T23:23:41.970Z,55.70
2017-09-04T23:26:09.535Z,55.70
2017-09-04T23:28:37.031Z,55.70
2017-09-04T23:31:04.518Z,55.60
2017-09-04T23:33:32.779Z,55.50
2017-09-04T23:36:00.385Z,55.50
2017-09-04T23:38:27.875Z,55.50
2017-09-04T23:40:55.480Z,55.60
2017-09-04T23:43:23.143Z,55.70
2017-09-04T23:45:50.850Z,55.60
2017-09-04T23:48:18.345Z,55.40
2017-09-04T23:50:45.843Z,55.40
2017-09-04T23:53:13.383Z,55.40
2017-09-04T23:55:40.886Z,55.50
2017-09-04T23:58:08.388Z,55.50
